Main page
METAR-TAF:

METAR-TAF

Airports :

Cyril E. King Airport

Saint Thomas, United States Virgin Islands

latitude: 18-20N, longitude: 064-59W, elevation: 7 m

Current weather observation

The report was made 1 hour and 25 minutes ago, at 08:53 UTC
Wind 7 kt from the East
Temperature
Pressure 1013 hPa
Visibility: 16.1 km

METAR: TIST 210853Z 10007KT 10SM A2991 RMK AO2 SLP131 6//// 56007 PNO $

Time: 06:18 (10:18 UTC)

Forecast

The report was made 4 hours and 54 minutes ago, at 05:24 UTC
Forecast valid from 21 at 06 UTC to 22 at 06 UTC
Wind 7 kt from the East
Visibility: 10 km
Few clouds at a height of 2500 ft
From 21 at 1400 UTC
Wind 14 kt from the Southeast
Visibility: 10 km
Scattered clouds at a height of 2500 ft
showers in vicinity
From 21 at 2300 UTC
Wind 8 kt from the East
Visibility: 10 km
Scattered clouds at a height of 2500 ft

TAF: TIST 210524Z 2106/2206 08007KT P6SM FEW025 FM211400 13014KT P6SM VCSH SCT025 FM212300 10008KT P6SM SCT025 AMD NOT SKED

Weather observations and forecasts of more than 4000 airports (METAR and TAF reports).

The available stations are represented by yellow and red dots on the map.

Hover mouse over dot to see the name of the station.

Then click to see weather observations and forecasts.

To change the map : click on the green buttons with a black cross to zoom in, on the green button with a dash to zoom out, or on the green arrows for adjacent maps.


METAR-TAF: